createdAt,value
2019-05-02T00:00:01.587Z,83.30
2019-05-02T00:01:01.549Z,79.80
2019-05-02T00:02:01.562Z,77.50
2019-05-02T00:03:04.563Z,80.30
2019-05-02T00:04:01.535Z,76.30
2019-05-02T00:05:01.511Z,86.40
2019-05-02T00:06:02.884Z,76.60
2019-05-02T00:07:02.514Z,83.30
2019-05-02T00:08:01.485Z,78.70
2019-05-02T00:09:03.954Z,79.30
2019-05-02T00:10:02.461Z,83.60
2019-05-02T00:11:01.465Z,82.50
2019-05-02T00:12:03.144Z,83.00
2019-05-02T00:13:01.431Z,87.50
2019-05-02T00:14:01.416Z,91.50
2019-05-02T00:15:02.189Z,84.40
2019-05-02T00:16:01.409Z,79.40
2019-05-02T00:17:01.393Z,86.60
2019-05-02T00:18:04.203Z,83.60
2019-05-02T00:19:01.362Z,82.40
2019-05-02T00:20:01.353Z,78.50
2019-05-02T00:21:03.136Z,83.00
2019-05-02T00:22:01.329Z,80.90
2019-05-02T00:23:01.351Z,82.40
2019-05-02T00:24:03.005Z,81.20
2019-05-02T00:25:01.292Z,84.30
2019-05-02T00:26:01.289Z,86.30
2019-05-02T00:27:03.132Z,80.50
2019-05-02T00:28:03.121Z,80.60
2019-05-02T00:29:01.256Z,82.60
2019-05-02T00:30:01.242Z,85.70
2019-05-02T00:31:01.235Z,89.10
2019-05-02T00:32:01.218Z,87.20
2019-05-02T00:33:03.130Z,83.90
2019-05-02T00:34:01.196Z,84.90
2019-05-02T00:35:01.197Z,85.50
2019-05-02T00:36:01.212Z,88.20
2019-05-02T00:37:01.175Z,84.60
2019-05-02T00:38:03.902Z,87.70
2019-05-02T00:39:01.148Z,88.50
2019-05-02T00:40:01.140Z,85.70
2019-05-02T00:41:02.239Z,82.90
2019-05-02T00:42:12.049Z,88.60
2019-05-02T00:43:03.161Z,86.50
2019-05-02T00:44:01.090Z,83.00
2019-05-02T00:45:01.078Z,85.20
2019-05-02T00:46:01.072Z,86.10
2019-05-02T00:47:01.068Z,81.00
2019-05-02T00:48:03.196Z,90.10
2019-05-02T00:49:01.846Z,88.30
2019-05-02T00:50:01.030Z,96.60
2019-05-02T00:51:01.017Z,88.30
2019-05-02T00:52:02.860Z,91.20
2019-05-02T00:53:07.103Z,94.40
2019-05-02T00:54:02.015Z,94.90
2019-05-02T00:55:00.970Z,89.90
2019-05-02T00:56:05.053Z,92.30
2019-05-02T00:57:01.958Z,88.80
2019-05-02T00:58:03.225Z,89.10
2019-05-02T00:59:02.446Z,93.60
2019-05-02T01:00:01.921Z,104.20
2019-05-02T01:01:00.915Z,95.90
2019-05-02T01:02:05.308Z,87.60
2019-05-02T01:03:01.915Z,100.10
2019-05-02T01:04:00.875Z,90.30
2019-05-02T01:05:03.276Z,97.30
2019-05-02T01:06:00.875Z,101.30
2019-05-02T01:07:00.853Z,98.60
2019-05-02T01:08:02.867Z,98.60
2019-05-02T01:09:00.824Z,96.10
2019-05-02T01:10:00.821Z,111.80
2019-05-02T01:11:00.801Z,100.80
2019-05-02T01:12:03.103Z,103.30
2019-05-02T01:13:03.475Z,107.20
2019-05-02T01:14:00.797Z,102.70
2019-05-02T01:15:03.223Z,106.10
2019-05-02T01:16:01.741Z,104.40
2019-05-02T01:17:00.747Z,104.00
2019-05-02T01:18:01.193Z,115.60
2019-05-02T01:19:04.152Z,113.90
2019-05-02T01:20:00.714Z,111.60
2019-05-02T01:21:02.860Z,110.20
2019-05-02T01:22:00.694Z,106.50
2019-05-02T01:23:00.677Z,103.60
2019-05-02T01:24:03.311Z,102.80
2019-05-02T01:25:00.658Z,121.80
2019-05-02T01:26:00.714Z,112.50
2019-05-02T01:27:04.655Z,110.10
2019-05-02T01:28:01.615Z,113.40
2019-05-02T01:29:04.315Z,107.10
2019-05-02T01:30:01.690Z,108.70
2019-05-02T01:31:01.702Z,116.50
2019-05-02T01:32:00.581Z,114.50
2019-05-02T01:33:01.304Z,109.30
2019-05-02T01:34:03.063Z,110.10
2019-05-02T01:35:00.547Z,112.00
2019-05-02T01:36:01.742Z,116.10
2019-05-02T01:37:01.526Z,112.40
2019-05-02T01:38:00.519Z,117.40
2019-05-02T01:39:07.580Z,117.20
2019-05-02T01:40:01.530Z,114.50
2019-05-02T01:41:00.490Z,130.50
2019-05-02T01:42:04.033Z,112.20
2019-05-02T01:43:00.468Z,113.90
2019-05-02T01:44:03.367Z,116.50
2019-05-02T01:45:00.446Z,116.60
2019-05-02T01:46:00.445Z,121.30
2019-05-02T01:47:00.416Z,122.30
2019-05-02T01:48:00.416Z,121.80
2019-05-02T01:49:04.134Z,129.00
2019-05-02T01:50:00.384Z,131.70
2019-05-02T01:51:04.651Z,120.40
2019-05-02T01:52:01.379Z,121.80
2019-05-02T01:53:00.355Z,114.30
2019-05-02T01:54:05.054Z,124.80
2019-05-02T01:55:01.332Z,118.00
2019-05-02T01:56:00.320Z,129.80
2019-05-02T01:57:04.002Z,130.60
2019-05-02T01:58:01.301Z,128.10
2019-05-02T01:59:01.221Z,122.10
2019-05-02T02:00:04.274Z,129.90
2019-05-02T02:01:01.269Z,127.60
2019-05-02T02:02:00.254Z,124.50
2019-05-02T02:03:04.274Z,122.50
2019-05-02T02:04:03.037Z,132.80
2019-05-02T02:05:00.230Z,126.40
2019-05-02T02:06:02.829Z,128.10
2019-05-02T02:07:01.205Z,133.00
2019-05-02T02:08:00.201Z,127.50
2019-05-02T02:09:08.292Z,130.00
2019-05-02T02:10:01.167Z,130.30
2019-05-02T02:11:00.166Z,122.80
2019-05-02T02:12:00.152Z,121.00
2019-05-02T02:13:04.717Z,130.50
2019-05-02T02:14:07.400Z,125.10
2019-05-02T02:15:01.123Z,120.40
2019-05-02T02:16:04.248Z,134.90
2019-05-02T02:17:01.094Z,127.80
2019-05-02T02:18:00.087Z,125.90
2019-05-02T02:19:03.934Z,127.00
2019-05-02T02:20:03.581Z,127.80
2019-05-02T02:21:00.061Z,128.90
2019-05-02T02:22:02.938Z,129.70
2019-05-02T02:23:00.033Z,131.90
2019-05-02T02:24:00.036Z,121.40
2019-05-02T02:25:03.581Z,129.70
2019-05-02T02:26:00.007Z,119.10
2019-05-02T02:26:59.995Z,122.90
2019-05-02T02:28:01.040Z,130.70
2019-05-02T02:29:03.033Z,128.10
2019-05-02T02:30:03.392Z,134.10
2019-05-02T02:31:04.840Z,138.50
2019-05-02T02:32:00.955Z,129.20
2019-05-02T02:33:07.647Z,129.80
2019-05-02T02:34:00.923Z,132.20
2019-05-02T02:35:03.616Z,131.30
2019-05-02T02:36:00.893Z,135.60
2019-05-02T02:37:05.677Z,127.30
2019-05-02T02:38:00.877Z,144.50
2019-05-02T02:38:59.862Z,137.10
2019-05-02T02:39:59.867Z,131.50
2019-05-02T02:40:59.864Z,136.60
2019-05-02T02:41:59.826Z,131.00
2019-05-02T02:43:12.626Z,134.40
2019-05-02T02:44:02.921Z,142.70
2019-05-02T02:44:59.814Z,142.80
2019-05-02T02:46:00.026Z,138.40
2019-05-02T02:46:59.778Z,151.30
2019-05-02T02:48:02.087Z,132.60
2019-05-02T02:48:59.761Z,135.30
2019-05-02T02:50:02.301Z,151.50
2019-05-02T02:50:59.725Z,140.00
2019-05-02T02:52:04.768Z,139.60
2019-05-02T02:53:00.716Z,149.00
2019-05-02T02:54:03.876Z,142.40
2019-05-02T02:55:03.184Z,147.50
2019-05-02T02:56:01.801Z,141.20
2019-05-02T02:56:59.691Z,139.40
2019-05-02T02:58:04.812Z,159.50
2019-05-02T02:59:00.648Z,147.60
2019-05-02T03:00:07.306Z,138.90
2019-05-02T03:01:03.111Z,157.90
2019-05-02T03:02:08.740Z,163.50
2019-05-02T03:03:00.606Z,140.60
2019-05-02T03:04:01.937Z,151.30
2019-05-02T03:05:00.586Z,149.70
2019-05-02T03:06:06.303Z,137.50
2019-05-02T03:07:00.562Z,162.20
2019-05-02T03:08:05.483Z,138.00
2019-05-02T03:09:00.539Z,155.30
2019-05-02T03:10:05.890Z,143.50
2019-05-02T03:11:04.071Z,124.30
2019-05-02T03:12:02.031Z,137.00
2019-05-02T03:12:59.496Z,154.60
2019-05-02T03:14:05.505Z,136.20
2019-05-02T03:15:00.477Z,152.00
2019-05-02T03:16:00.277Z,158.50
2019-05-02T03:17:00.453Z,127.70
2019-05-02T03:18:00.370Z,124.20
2019-05-02T03:18:59.432Z,129.20
2019-05-02T03:20:03.435Z,154.40
2019-05-02T03:20:59.429Z,141.20
2019-05-02T03:22:01.611Z,136.90
2019-05-02T03:22:59.385Z,141.80
2019-05-02T03:24:03.169Z,129.80
2019-05-02T03:25:00.372Z,127.50
2019-05-02T03:25:59.379Z,133.70
2019-05-02T03:26:59.363Z,134.20
2019-05-02T03:27:59.384Z,145.70
2019-05-02T03:29:00.757Z,124.30
2019-05-02T03:29:59.346Z,128.60
2019-05-02T03:30:59.338Z,116.30
2019-05-02T03:32:14.577Z,118.30
2019-05-02T03:33:09.741Z,123.30
2019-05-02T03:34:01.387Z,133.70
2019-05-02T03:34:59.256Z,134.70
2019-05-02T03:35:59.276Z,124.60
2019-05-02T03:37:03.362Z,127.20
2019-05-02T03:38:00.222Z,122.50
2019-05-02T03:38:59.225Z,124.00
2019-05-02T03:40:00.674Z,130.80
2019-05-02T03:40:59.222Z,117.30
2019-05-02T03:42:02.842Z,128.60
2019-05-02T03:42:59.184Z,133.50
2019-05-02T03:44:10.465Z,121.80
2019-05-02T03:45:04.418Z,134.90
2019-05-02T03:45:59.159Z,142.10
2019-05-02T03:47:02.188Z,133.40
2019-05-02T03:48:00.128Z,120.80
2019-05-02T03:49:07.202Z,127.30
2019-05-02T03:50:00.106Z,130.50
2019-05-02T03:50:59.130Z,125.00
2019-05-02T03:52:02.671Z,129.20
2019-05-02T03:53:00.067Z,122.80
2019-05-02T03:54:07.057Z,115.80
2019-05-02T03:55:00.044Z,124.60
2019-05-02T03:56:10.767Z,125.10
2019-05-02T03:57:00.029Z,124.00
2019-05-02T03:57:59.021Z,122.30
2019-05-02T03:58:59.037Z,120.50
2019-05-02T03:59:58.999Z,127.60
2019-05-02T04:01:01.524Z,121.90
2019-05-02T04:01:59.158Z,113.40
2019-05-02T04:03:00.189Z,119.00
2019-05-02T04:03:58.951Z,117.30
2019-05-02T04:05:00.733Z,127.60
2019-05-02T04:05:58.932Z,119.70
2019-05-02T04:07:01.197Z,118.90
2019-05-02T04:07:58.907Z,126.80
2019-05-02T04:09:00.181Z,119.60
2019-05-02T04:09:58.892Z,110.50
2019-05-02T04:10:59.770Z,119.40
2019-05-02T04:11:58.892Z,121.80
2019-05-02T04:12:59.949Z,118.50
2019-05-02T04:13:58.857Z,111.90
2019-05-02T04:14:58.831Z,121.20
2019-05-02T04:15:58.837Z,116.80
2019-05-02T04:16:58.849Z,112.20
2019-05-02T04:17:58.798Z,115.70
2019-05-02T04:18:58.794Z,119.90
2019-05-02T04:19:58.790Z,112.50
2019-05-02T04:20:58.769Z,117.70
2019-05-02T04:22:01.882Z,117.10
2019-05-02T04:22:59.752Z,110.80
2019-05-02T04:24:12.768Z,113.60
2019-05-02T04:24:59.736Z,111.10
2019-05-02T04:25:58.743Z,115.90
2019-05-02T04:26:58.724Z,112.50
2019-05-02T04:27:58.699Z,106.20
2019-05-02T04:28:58.692Z,120.80
2019-05-02T04:30:09.790Z,113.40
2019-05-02T04:30:59.666Z,115.20
2019-05-02T04:32:04.298Z,117.40
2019-05-02T04:32:59.661Z,109.80
2019-05-02T04:33:58.649Z,120.70
2019-05-02T04:34:58.618Z,107.50
2019-05-02T04:35:59.500Z,112.00
2019-05-02T04:37:00.949Z,117.70
2019-05-02T04:38:02.678Z,112.60
2019-05-02T04:38:59.747Z,115.70
2019-05-02T04:40:02.999Z,116.90
2019-05-02T04:40:59.195Z,110.30
2019-05-02T04:42:04.790Z,112.80
2019-05-02T04:43:05.475Z,114.50
2019-05-02T04:44:01.671Z,105.60
2019-05-02T04:45:13.920Z,111.10
2019-05-02T04:46:00.157Z,110.10
2019-05-02T04:47:06.474Z,108.60
2019-05-02T04:48:03.846Z,110.00
2019-05-02T04:48:59.025Z,109.70
2019-05-02T04:49:58.668Z,109.10
2019-05-02T04:51:08.837Z,112.20
2019-05-02T04:52:06.310Z,119.40
2019-05-02T04:52:59.427Z,115.90
2019-05-02T04:53:58.885Z,112.30
2019-05-02T04:55:08.244Z,114.00
2019-05-02T04:56:04.399Z,115.40
2019-05-02T04:57:02.316Z,114.10
2019-05-02T04:58:01.659Z,108.80
2019-05-02T04:59:01.172Z,110.50
2019-05-02T05:00:06.515Z,114.70
2019-05-02T05:01:01.893Z,111.90
2019-05-02T05:02:01.399Z,114.20
2019-05-02T05:02:58.345Z,111.20
2019-05-02T05:04:03.171Z,107.00
2019-05-02T05:04:59.298Z,107.70
2019-05-02T05:05:59.411Z,113.70
2019-05-02T05:07:01.062Z,110.00
2019-05-02T05:07:58.612Z,122.90
2019-05-02T05:08:58.591Z,110.50
2019-05-02T05:10:03.137Z,125.00
2019-05-02T05:10:59.226Z,114.60
2019-05-02T05:12:01.328Z,118.10
2019-05-02T05:12:58.225Z,117.40
2019-05-02T05:14:00.320Z,116.60
2019-05-02T05:15:00.492Z,117.40
2019-05-02T05:15:58.184Z,117.50
2019-05-02T05:16:58.201Z,116.30
2019-05-02T05:17:58.309Z,114.30
2019-05-02T05:18:59.944Z,117.70
2019-05-02T05:20:00.150Z,113.00
2019-05-02T05:20:58.123Z,119.40
2019-05-02T05:22:04.386Z,120.70
2019-05-02T05:22:59.127Z,117.50
2019-05-02T05:24:01.351Z,118.90
2019-05-02T05:24:58.328Z,117.50
2019-05-02T05:26:03.395Z,120.00
2019-05-02T05:27:00.187Z,114.10
2019-05-02T05:28:05.255Z,120.40
2019-05-02T05:28:59.045Z,120.20
2019-05-02T05:29:59.449Z,119.90
2019-05-02T05:30:59.018Z,118.10
2019-05-02T05:32:05.251Z,114.80
2019-05-02T05:32:59.016Z,108.40
2019-05-02T05:33:58.119Z,121.40
2019-05-02T05:34:58.062Z,113.60
2019-05-02T05:35:57.966Z,115.70
2019-05-02T05:36:58.382Z,118.00
2019-05-02T05:37:57.963Z,111.80
2019-05-02T05:38:58.437Z,109.30
2019-05-02T05:39:58.063Z,111.30
2019-05-02T05:40:58.119Z,113.60
2019-05-02T05:41:57.957Z,113.80
2019-05-02T05:43:02.704Z,109.00
2019-05-02T05:43:58.875Z,112.40
2019-05-02T05:44:58.381Z,112.60
2019-05-02T05:46:09.337Z,114.30
2019-05-02T05:46:58.884Z,117.90
2019-05-02T05:48:01.058Z,115.90
2019-05-02T05:48:58.445Z,108.80
2019-05-02T05:50:01.026Z,110.60
2019-05-02T05:50:58.047Z,115.90
2019-05-02T05:52:02.281Z,110.90
2019-05-02T05:52:59.560Z,109.20
2019-05-02T05:54:02.804Z,105.90
2019-05-02T05:54:58.760Z,109.00
2019-05-02T05:55:59.002Z,107.60
2019-05-02T05:56:57.732Z,112.80
2019-05-02T05:58:03.190Z,106.30
2019-05-02T05:58:59.253Z,110.40
2019-05-02T05:59:58.414Z,104.60
2019-05-02T06:00:58.420Z,106.80
2019-05-02T06:01:58.093Z,104.30
2019-05-02T06:03:10.117Z,107.80
2019-05-02T06:03:58.684Z,107.10
2019-05-02T06:05:02.506Z,102.00
2019-05-02T06:05:58.660Z,104.60
2019-05-02T06:07:01.602Z,112.80
2019-05-02T06:07:58.623Z,110.50
2019-05-02T06:08:57.631Z,106.40
2019-05-02T06:09:57.601Z,110.50
2019-05-02T06:10:57.593Z,112.10
2019-05-02T06:11:57.574Z,111.00
2019-05-02T06:12:57.566Z,106.20
2019-05-02T06:13:57.582Z,111.40
2019-05-02T06:15:01.915Z,105.50
2019-05-02T06:16:02.652Z,114.80
2019-05-02T06:16:57.525Z,106.20
2019-05-02T06:17:59.970Z,113.50
2019-05-02T06:18:58.524Z,111.70
2019-05-02T06:19:57.494Z,113.40
2019-05-02T06:20:58.457Z,110.30
2019-05-02T06:21:57.469Z,105.60
2019-05-02T06:23:00.065Z,107.80
2019-05-02T06:23:57.466Z,109.80
2019-05-02T06:24:57.430Z,107.90
2019-05-02T06:25:57.427Z,101.20
2019-05-02T06:26:57.421Z,111.00
2019-05-02T06:28:00.109Z,106.90
2019-05-02T06:28:58.420Z,106.20
2019-05-02T06:29:57.422Z,107.20
2019-05-02T06:30:57.397Z,108.60
2019-05-02T06:31:57.363Z,110.20
2019-05-02T06:32:57.352Z,109.10
2019-05-02T06:33:57.361Z,108.10
2019-05-02T06:34:57.327Z,109.80
2019-05-02T06:36:01.054Z,106.70
2019-05-02T06:36:58.301Z,106.60
2019-05-02T06:37:57.293Z,108.40
2019-05-02T06:38:57.928Z,103.20
2019-05-02T06:39:57.277Z,100.00
2019-05-02T06:40:57.265Z,104.40
2019-05-02T06:41:58.675Z,106.70
2019-05-02T06:42:57.238Z,103.00
2019-05-02T06:43:57.257Z,110.30
2019-05-02T06:44:59.659Z,103.10
2019-05-02T06:45:57.209Z,104.10
2019-05-02T06:46:59.110Z,99.30
2019-05-02T06:48:01.007Z,100.90
2019-05-02T06:48:57.189Z,101.30
2019-05-02T06:50:01.091Z,99.70
2019-05-02T06:50:58.170Z,100.10
2019-05-02T06:51:57.719Z,96.80
2019-05-02T06:52:57.139Z,103.40
2019-05-02T06:53:57.152Z,101.20
2019-05-02T06:54:57.977Z,103.30
2019-05-02T06:55:57.099Z,99.00
2019-05-02T06:56:57.084Z,95.30
2019-05-02T06:58:02.848Z,97.70
2019-05-02T06:58:58.091Z,100.30
2019-05-02T06:59:57.061Z,94.80
2019-05-02T07:00:58.931Z,95.90
2019-05-02T07:01:58.660Z,88.80
2019-05-02T07:02:57.026Z,92.90
2019-05-02T07:03:57.078Z,88.10
2019-05-02T07:04:57.008Z,87.50
2019-05-02T07:05:58.851Z,88.60
2019-05-02T07:06:59.488Z,89.90
2019-05-02T07:07:56.970Z,78.20
2019-05-02T07:08:59.662Z,81.20
2019-05-02T07:09:57.293Z,84.90
2019-05-02T07:11:01.419Z,81.90
2019-05-02T07:12:01.378Z,83.80
2019-05-02T07:13:10.068Z,86.50
2019-05-02T07:13:57.939Z,84.10
2019-05-02T07:15:01.505Z,76.00
2019-05-02T07:15:57.878Z,78.30
2019-05-02T07:16:56.903Z,80.70
2019-05-02T07:17:56.865Z,81.40
2019-05-02T07:18:56.851Z,82.10
2019-05-02T07:19:58.865Z,80.60
2019-05-02T07:20:57.827Z,78.90
2019-05-02T07:21:58.590Z,74.10
2019-05-02T07:22:56.809Z,81.00
2019-05-02T07:23:56.803Z,75.40
2019-05-02T07:24:56.814Z,71.80
2019-05-02T07:25:59.947Z,69.60
2019-05-02T07:26:57.082Z,71.70
2019-05-02T07:27:56.751Z,72.40
2019-05-02T07:28:56.739Z,73.70
2019-05-02T07:29:57.639Z,74.70
2019-05-02T07:30:56.722Z,72.00
2019-05-02T07:31:56.759Z,71.10
2019-05-02T07:33:01.197Z,72.90
2019-05-02T07:33:57.735Z,71.50
2019-05-02T07:34:56.699Z,72.10
2019-05-02T07:36:00.073Z,68.90
2019-05-02T07:36:56.666Z,70.30
2019-05-02T07:37:56.655Z,66.50
2019-05-02T07:38:57.594Z,63.00
2019-05-02T07:39:57.638Z,57.20
2019-05-02T07:40:56.610Z,60.90
2019-05-02T07:42:00.393Z,55.90
2019-05-02T07:42:57.590Z,59.60
2019-05-02T07:43:57.506Z,60.90
2019-05-02T07:44:56.603Z,65.80
2019-05-02T07:45:56.559Z,63.30
2019-05-02T07:46:57.020Z,60.30
2019-05-02T07:47:57.531Z,62.80
2019-05-02T07:48:56.719Z,64.10
2019-05-02T07:49:56.534Z,63.60
2019-05-02T07:50:56.875Z,68.90
2019-05-02T07:51:57.663Z,63.50
2019-05-02T07:52:56.502Z,63.60
2019-05-02T07:53:56.472Z,68.40
2019-05-02T07:55:01.227Z,68.20
2019-05-02T07:55:57.489Z,67.30
2019-05-02T07:56:56.468Z,65.50
2019-05-02T07:57:56.430Z,68.10
2019-05-02T07:58:56.417Z,67.00
2019-05-02T08:00:00.468Z,67.10
2019-05-02T08:00:57.431Z,67.00
2019-05-02T08:01:56.387Z,64.50
2019-05-02T08:02:57.984Z,68.30
2019-05-02T08:03:56.368Z,67.60
2019-05-02T08:04:56.349Z,65.90
2019-05-02T08:05:58.521Z,65.10
2019-05-02T08:06:56.334Z,70.90
2019-05-02T08:07:56.323Z,68.30
2019-05-02T08:08:56.320Z,68.60
2019-05-02T08:09:56.299Z,66.50
2019-05-02T08:11:01.723Z,66.30
2019-05-02T08:11:57.283Z,69.70
2019-05-02T08:12:56.264Z,70.30
2019-05-02T08:14:00.417Z,68.30
2019-05-02T08:14:56.244Z,67.30
2019-05-02T08:15:56.272Z,69.30
2019-05-02T08:17:05.271Z,65.40
2019-05-02T08:17:57.211Z,61.20
2019-05-02T08:18:56.198Z,64.00
2019-05-02T08:19:56.186Z,65.20
2019-05-02T08:20:57.353Z,63.90
2019-05-02T08:21:56.172Z,64.90
2019-05-02T08:22:56.155Z,63.50
2019-05-02T08:23:57.196Z,62.00
2019-05-02T08:24:57.136Z,62.90
2019-05-02T08:25:56.155Z,65.60
2019-05-02T08:26:58.389Z,66.60
2019-05-02T08:27:56.109Z,67.00
2019-05-02T08:28:56.097Z,69.80
2019-05-02T08:30:00.050Z,71.20
2019-05-02T08:30:57.090Z,69.90
2019-05-02T08:31:56.061Z,73.70
2019-05-02T08:32:56.049Z,72.50
2019-05-02T08:33:56.038Z,69.90
2019-05-02T08:34:56.032Z,74.30
2019-05-02T08:35:56.046Z,74.80
2019-05-02T08:36:58.942Z,68.70
2019-05-02T08:37:56.999Z,70.10
2019-05-02T08:38:55.992Z,71.80
2019-05-02T08:39:55.979Z,69.00
2019-05-02T08:40:55.987Z,69.20
2019-05-02T08:41:57.813Z,67.30
2019-05-02T08:42:55.939Z,68.90
2019-05-02T08:43:55.927Z,67.60
2019-05-02T08:44:56.383Z,68.90
2019-05-02T08:45:55.926Z,64.70
2019-05-02T08:46:55.899Z,67.50
2019-05-02T08:47:55.893Z,65.50
2019-05-02T08:48:55.880Z,65.40
2019-05-02T08:49:56.705Z,64.70
2019-05-02T08:50:55.874Z,63.80
2019-05-02T08:51:55.840Z,63.50
2019-05-02T08:52:55.838Z,61.60
2019-05-02T08:53:56.738Z,65.00
2019-05-02T08:54:55.812Z,63.20
2019-05-02T08:55:55.819Z,62.20
2019-05-02T08:56:59.118Z,59.20
2019-05-02T08:57:55.779Z,61.00
2019-05-02T08:58:55.768Z,61.00
2019-05-02T09:00:00.251Z,62.80
2019-05-02T09:00:56.846Z,61.40
2019-05-02T09:01:55.763Z,60.50
2019-05-02T09:02:57.183Z,58.70
2019-05-02T09:03:57.132Z,57.90
2019-05-02T09:04:58.602Z,57.70
2019-05-02T09:06:05.599Z,59.90
2019-05-02T09:06:58.706Z,56.50
2019-05-02T09:07:55.695Z,58.10
2019-05-02T09:08:55.672Z,55.80
2019-05-02T09:09:55.710Z,59.00
2019-05-02T09:10:55.658Z,55.90
2019-05-02T09:12:09.108Z,59.30
2019-05-02T09:12:56.632Z,59.80
2019-05-02T09:13:55.608Z,56.90
2019-05-02T09:14:55.598Z,56.60
2019-05-02T09:15:55.666Z,58.70
2019-05-02T09:16:55.601Z,57.70
2019-05-02T09:17:56.539Z,56.50
2019-05-02T09:18:55.579Z,57.50
2019-05-02T09:20:02.670Z,56.90
2019-05-02T09:20:56.903Z,56.80
2019-05-02T09:21:55.524Z,54.50
2019-05-02T09:22:56.032Z,48.70
2019-05-02T09:23:55.515Z,51.80
2019-05-02T09:24:55.511Z,53.90
2019-05-02T09:25:55.483Z,51.70
2019-05-02T09:26:55.467Z,51.50
2019-05-02T09:27:55.450Z,48.50
2019-05-02T09:28:56.262Z,48.20
2019-05-02T09:29:56.449Z,49.60
2019-05-02T09:30:57.457Z,52.10
2019-05-02T09:31:56.436Z,50.30
2019-05-02T09:32:57.271Z,47.70
2019-05-02T09:33:56.411Z,47.50
2019-05-02T09:34:56.610Z,50.60
2019-05-02T09:35:56.371Z,46.90
2019-05-02T09:36:55.352Z,47.30
2019-05-02T09:37:55.365Z,50.50
2019-05-02T09:38:57.581Z,47.90
2019-05-02T09:39:55.347Z,44.90
2019-05-02T09:40:56.323Z,46.80
2019-05-02T09:41:55.300Z,42.80
2019-05-02T09:43:00.042Z,46.00
2019-05-02T09:43:56.285Z,43.30
2019-05-02T09:44:56.908Z,43.60
2019-05-02T09:45:55.282Z,43.60
2019-05-02T09:46:56.988Z,43.30
2019-05-02T09:48:04.057Z,40.20
2019-05-02T09:48:56.999Z,42.50
2019-05-02T09:49:56.215Z,39.90
2019-05-02T09:50:57.736Z,40.00
2019-05-02T09:51:59.137Z,39.40
2019-05-02T09:52:56.208Z,39.40
2019-05-02T09:53:57.048Z,37.30
2019-05-02T09:54:56.166Z,39.10
2019-05-02T09:55:57.959Z,33.10
2019-05-02T09:56:55.166Z,37.20
2019-05-02T09:57:55.162Z,39.60
2019-05-02T09:59:06.204Z,35.30
2019-05-02T09:59:56.108Z,37.00
2019-05-02T10:00:55.145Z,37.70
2019-05-02T10:01:55.116Z,38.20
2019-05-02T10:02:55.111Z,38.50
2019-05-02T10:03:55.075Z,40.00
2019-05-02T10:04:55.095Z,37.40
2019-05-02T10:05:55.059Z,38.30
2019-05-02T10:06:55.083Z,36.90
2019-05-02T10:07:57.371Z,38.30
2019-05-02T10:08:56.020Z,36.80
2019-05-02T10:09:57.705Z,38.50
2019-05-02T10:10:56.003Z,35.00
2019-05-02T10:11:55.002Z,36.30
2019-05-02T10:12:54.992Z,38.20
2019-05-02T10:13:55.466Z,40.10
2019-05-02T10:14:54.961Z,38.50
2019-05-02T10:15:54.941Z,38.20
2019-05-02T10:16:57.713Z,38.60
2019-05-02T10:18:07.823Z,39.30
2019-05-02T10:18:55.946Z,36.70
2019-05-02T10:19:57.164Z,35.20
2019-05-02T10:20:54.909Z,35.70
2019-05-02T10:21:56.406Z,35.00
2019-05-02T10:22:54.905Z,39.70
2019-05-02T10:23:59.439Z,37.50
2019-05-02T10:24:55.841Z,34.70
2019-05-02T10:25:54.833Z,35.20
2019-05-02T10:27:03.320Z,33.60
2019-05-02T10:27:55.838Z,33.40
2019-05-02T10:28:54.817Z,35.90
2019-05-02T10:29:57.149Z,33.80
2019-05-02T10:30:56.552Z,35.60
2019-05-02T10:31:54.776Z,35.00
2019-05-02T10:32:57.269Z,35.30
2019-05-02T10:33:54.766Z,37.60
2019-05-02T10:34:56.786Z,34.50
2019-05-02T10:35:54.733Z,35.90
2019-05-02T10:36:59.095Z,37.80
2019-05-02T10:37:55.710Z,35.80
2019-05-02T10:38:59.217Z,36.20
2019-05-02T10:39:55.921Z,37.40
2019-05-02T10:41:01.687Z,35.40
2019-05-02T10:41:57.557Z,38.10
2019-05-02T10:42:54.659Z,34.60
2019-05-02T10:43:57.662Z,34.70
2019-05-02T10:44:54.657Z,36.20
2019-05-02T10:45:56.489Z,37.80
2019-05-02T10:46:54.619Z,36.20
2019-05-02T10:47:54.597Z,36.70
2019-05-02T10:48:54.590Z,36.00
2019-05-02T10:49:54.600Z,34.80
2019-05-02T10:50:54.592Z,35.10
2019-05-02T10:51:54.564Z,37.50
2019-05-02T10:52:54.552Z,34.60
2019-05-02T10:53:56.379Z,37.40
2019-05-02T10:54:54.545Z,38.00
2019-05-02T10:55:54.537Z,38.30
2019-05-02T10:56:54.518Z,36.80
2019-05-02T10:57:54.500Z,39.50
2019-05-02T10:58:54.489Z,38.30
2019-05-02T10:59:56.152Z,40.70
2019-05-02T11:00:54.461Z,40.90
2019-05-02T11:01:54.473Z,38.10
2019-05-02T11:02:54.450Z,38.10
2019-05-02T11:03:54.443Z,37.40
2019-05-02T11:04:54.424Z,37.60
2019-05-02T11:05:58.027Z,42.40
2019-05-02T11:06:56.787Z,38.40
2019-05-02T11:07:56.827Z,39.80
2019-05-02T11:08:55.377Z,37.00
2019-05-02T11:09:57.245Z,35.50
2019-05-02T11:10:55.355Z,37.70
2019-05-02T11:11:54.355Z,38.20
2019-05-02T11:12:56.143Z,37.10
2019-05-02T11:14:01.107Z,40.20
2019-05-02T11:14:55.334Z,41.00
2019-05-02T11:15:54.296Z,42.20
2019-05-02T11:16:56.753Z,39.40
2019-05-02T11:17:54.282Z,36.50
2019-05-02T11:18:54.268Z,36.70
2019-05-02T11:19:54.300Z,37.60
2019-05-02T11:20:54.242Z,38.80
2019-05-02T11:21:58.829Z,37.00
2019-05-02T11:22:54.657Z,35.20
2019-05-02T11:23:54.319Z,39.20
2019-05-02T11:24:54.211Z,40.50
2019-05-02T11:25:54.216Z,40.00
2019-05-02T11:26:54.244Z,37.60
2019-05-02T11:27:57.343Z,34.20
2019-05-02T11:28:55.157Z,40.70
2019-05-02T11:29:54.170Z,35.50
2019-05-02T11:30:57.025Z,33.40
2019-05-02T11:31:55.137Z,37.60
2019-05-02T11:32:54.128Z,37.80
2019-05-02T11:33:54.206Z,36.70
2019-05-02T11:34:54.117Z,35.80
2019-05-02T11:35:54.165Z,38.90
2019-05-02T11:36:54.082Z,41.40
2019-05-02T11:37:54.065Z,38.90
2019-05-02T11:39:03.156Z,37.10
2019-05-02T11:40:00.295Z,39.40
2019-05-02T11:40:55.025Z,35.60
2019-05-02T11:41:54.026Z,34.30
2019-05-02T11:42:57.343Z,33.80
2019-05-02T11:43:55.854Z,32.10
2019-05-02T11:44:53.994Z,34.30
2019-05-02T11:46:01.444Z,35.40
2019-05-02T11:46:54.968Z,31.90
2019-05-02T11:47:56.042Z,33.90
2019-05-02T11:48:58.319Z,31.80
2019-05-02T11:49:55.840Z,31.70
2019-05-02T11:50:53.925Z,33.70
2019-05-02T11:51:57.045Z,31.10
2019-05-02T11:52:53.923Z,31.20
2019-05-02T11:53:53.891Z,31.80
2019-05-02T11:54:53.882Z,32.50
2019-05-02T11:55:58.198Z,34.70
2019-05-02T11:56:54.862Z,35.60
2019-05-02T11:57:53.850Z,34.90
2019-05-02T11:58:53.847Z,36.60
2019-05-02T11:59:53.823Z,34.60
2019-05-02T12:00:53.816Z,35.60
2019-05-02T12:01:59.808Z,35.20
2019-05-02T12:02:58.078Z,35.50
2019-05-02T12:03:53.788Z,37.70
2019-05-02T12:04:55.518Z,35.10
2019-05-02T12:05:53.777Z,37.30
2019-05-02T12:07:00.937Z,37.70
2019-05-02T12:07:54.743Z,36.20
2019-05-02T12:08:53.754Z,34.20
2019-05-02T12:09:57.148Z,35.60
2019-05-02T12:10:53.707Z,37.20
2019-05-02T12:11:56.683Z,35.90
2019-05-02T12:12:53.695Z,34.40
2019-05-02T12:13:56.926Z,34.40
2019-05-02T12:14:53.691Z,30.50
2019-05-02T12:15:53.678Z,30.10
2019-05-02T12:16:53.648Z,32.40
2019-05-02T12:17:53.644Z,32.10
2019-05-02T12:18:57.990Z,30.10
2019-05-02T12:19:54.637Z,29.10
2019-05-02T12:20:53.601Z,30.10
2019-05-02T12:21:53.590Z,29.30
2019-05-02T12:22:53.584Z,28.20
2019-05-02T12:23:53.568Z,30.10
2019-05-02T12:24:53.550Z,28.90
2019-05-02T12:25:53.592Z,25.70
2019-05-02T12:26:53.536Z,25.60
2019-05-02T12:27:53.526Z,25.40
2019-05-02T12:28:53.526Z,29.00
2019-05-02T12:29:57.850Z,26.80
2019-05-02T12:30:54.507Z,27.00
2019-05-02T12:31:56.402Z,27.30
2019-05-02T12:32:53.462Z,27.00
2019-05-02T12:33:53.452Z,30.00
2019-05-02T12:34:53.452Z,26.30
2019-05-02T12:35:53.454Z,26.80
2019-05-02T12:36:53.418Z,29.50
2019-05-02T12:37:55.186Z,29.70
2019-05-02T12:38:53.417Z,27.40
2019-05-02T12:39:53.401Z,27.70
2019-05-02T12:40:53.404Z,28.50